Guangzhou Highway — 3EDQ6 — position and weather

sailwx.info

Track history (hours):
 
Tides and Currents Weather Stations Pressure Air Temp Water Temp Dewpoint Dewpoint Depression Visibility Wind Speed Wind Dir Waves Ship Positions

Guangzhou Highway

Last reported at 2018-Feb-08 00:45 UTC. Time now 2018-Feb-22 05:24 UTC.
Position N 06°59' W 014°43'.
Warning: this ship's position is 14 days out of date.

Length 180 m; beam 32.2 m.

Type: Ship. MMSI: 371697000.

Date/timePositionNaut miles runAvg speedWind from/ knotsBaromVisibWave heightAir tempDewpointWater temp
2018-Feb-08 00:45N 06°59' W 014°43'518.7
2018-Feb-08 00:30N 07°03' W 014°45'918.6
2018-Feb-08 00:00N 07°10' W 014°51'918.6
2018-Feb-07 23:30N 07°18' W 014°57'918.4
2018-Feb-07 23:00N 07°25' W 015°02'918.6
2018-Feb-07 22:31N 07°32' W 015°08'1318.6
2018-Feb-07 21:49N 07°43' W 015°16'518.4
2018-Feb-07 21:31N 07°47' W 015°19'  
2018-Feb-05 00:28N 27°36' W 015°15'818.1
2018-Feb-05 00:00N 27°43' W 015°11'917.8
2018-Feb-04 23:30N 27°52' W 015°07'917.5
2018-Feb-04 23:00N 27°60' W 015°03'917.4
2018-Feb-04 22:30N 28°08' W 015°00'917.5
2018-Feb-04 22:00N 28°16' W 014°57'917.5
2018-Feb-04 21:30N 28°24' W 014°53'917.4
2018-Feb-04 20:58N 28°33' W 014°50'  
2018-Feb-01 10:24N 49°42' W 003°50'816.1
2018-Feb-01 09:56N 49°44' W 003°38'715.6
2018-Feb-01 09:29N 49°43' W 003°28'3 3.2
2018-Feb-01 08:35N 49°43' W 003°23'0 3.3
2018-Feb-01 08:30N 49°43' W 003°24'7 3.8
2018-Feb-01 06:40N 49°42' W 003°35'1 4.3
2018-Feb-01 06:30N 49°42' W 003°36'3 1.6
2018-Feb-01 04:24N 49°46' W 003°37'612.7
2018-Feb-01 03:58N 49°48' W 003°29'1414.1
2018-Feb-01 03:01N 49°54' W 003°10'816.0
2018-Feb-01 02:30N 49°58' W 002°59'816.5
2018-Feb-01 02:01N 50°01' W 002°48'917.0
2018-Feb-01 01:30N 50°04' W 002°35'2017.0
2018-Feb-01 00:19N 50°10' W 002°05'515.9
2018-Feb-01 00:01N 50°12' W 001°58'1514.6
2018-Jan-31 23:00N 50°16' W 001°36'713.3
2018-Jan-31 22:30N 50°19' W 001°26'1711.5
2018-Jan-31 21:00N 50°25' W 001°01'510.2
2018-Jan-31 20:30N 50°28' W 000°56'714.7
2018-Jan-31 20:00N 50°36' W 000°58'611.1
2018-Jan-31 19:30N 50°41' W 000°58'510.8
2018-Jan-31 19:01N 50°44' W 001°05'815.1
2018-Jan-31 18:31N 50°46' W 001°16'5 9.2
2018-Jan-31 18:00N 50°50' W 001°19'4 7.4
2018-Jan-31 17:30N 50°53' W 001°24'0 0.0
2018-Jan-31 17:00N 50°53' W 001°24'0 0.0
2018-Jan-31 16:30N 50°53' W 001°24'0 0.0
2018-Jan-31 16:00N 50°53' W 001°24'0 0.0
2018-Jan-31 15:30N 50°53' W 001°24'0 0.0
2018-Jan-31 15:00N 50°53' W 001°24'0 0.0
2018-Jan-31 14:30N 50°53' W 001°24'0 0.0
2018-Jan-31 13:00N 50°53' W 001°24'0 0.0
2018-Jan-31 12:30N 50°53' W 001°24'0 0.0
2018-Jan-31 12:00N 50°53' W 001°24'0 0.0
2018-Jan-31 11:30N 50°53' W 001°24'0 0.0
2018-Jan-31 11:00N 50°53' W 001°24'0 0.0
2018-Jan-31 10:30N 50°53' W 001°24'0 0.0
2018-Jan-31 10:00N 50°53' W 001°24'0 0.0
2018-Jan-31 09:30N 50°53' W 001°24'0 0.0
2018-Jan-31 09:00N 50°53' W 001°24'0 0.0
2018-Jan-31 08:30N 50°53' W 001°24'0 0.0
2018-Jan-31 08:00N 50°53' W 001°24'0 0.0
2018-Jan-31 07:30N 50°53' W 001°24'0 0.0
2018-Jan-31 07:00N 50°53' W 001°24'0 0.0
2018-Jan-31 06:30N 50°53' W 001°24'2 4.3
2018-Jan-31 06:00N 50°52' W 001°21'5 9.1
2018-Jan-31 05:30N 50°47' W 001°19'612.5
2018-Jan-31 05:00N 50°46' W 001°09'714.7
2018-Jan-31 04:30N 50°43' W 000°59'5 9.2
2018-Jan-31 04:00N 50°38' W 000°58'4 7.3
2018-Jan-31 03:30N 50°37' W 000°53'2 4.3
2018-Jan-31 03:00N 50°37' W 000°49'3 6.9
2018-Jan-31 02:30N 50°35' W 000°44'816.1
2018-Jan-31 02:00N 50°31' W 000°33'917.1
2018-Jan-31 01:30N 50°32' W 000°20'816.7
2018-Jan-31 01:00N 50°32' W 000°07'1616.0
2018-Jan-31 00:00N 50°34' E 000°18'815.9
2018-Jan-30 23:30N 50°37' E 000°30'816.4
2018-Jan-30 23:00N 50°41' E 000°41'816.3
2018-Jan-30 22:30N 50°46' E 000°52'1514.8
2018-Jan-30 21:30N 50°55' E 001°10'714.0
2018-Jan-30 21:00N 50°60' E 001°18'815.5
2018-Jan-30 20:30N 51°05' E 001°27'917.4
2018-Jan-30 20:01N 51°10' E 001°38'918.0
2018-Jan-30 19:31N 51°17' E 001°48'918.0
2018-Jan-30 19:00N 51°24' E 001°57'917.7
2018-Jan-30 18:30N 51°31' E 002°06'917.2
2018-Jan-30 18:00N 51°37' E 002°15'917.5
2018-Jan-30 17:30N 51°43' E 002°25'1017.5
2018-Jan-30 16:56N 51°51' E 002°35'717.3
2018-Jan-30 16:31N 51°57' E 002°42'916.9
2018-Jan-30 15:58N 52°05' E 002°50'815.9
2018-Jan-30 15:29N 52°11' E 002°57'8015.7
2018-Jan-30 10:21N 53°11' E 004°25'12515.5
2018-Jan-30 02:18N 53°58' E 007°40'516.4
2018-Jan-30 02:00N 53°54' E 007°45'815.4
2018-Jan-30 01:30N 53°52' E 007°57'816.0
2018-Jan-30 01:00N 53°48' E 008°09'817.0
2018-Jan-30 00:31N 53°42' E 008°19'815.4
2018-Jan-30 00:00N 53°37' E 008°29'4 7.9
2018-Jan-29 23:30N 53°34' E 008°33'0 0.8
2018-Jan-29 23:00N 53°34' E 008°33'0 0.7
2018-Jan-29 22:28N 53°35' E 008°33'0 0.0
2018-Jan-29 21:58N 53°35' E 008°33'0 0.0
2018-Jan-29 21:28N 53°35' E 008°33'0 0.0
2018-Jan-29 20:58N 53°35' E 008°33'0 0.0
2018-Jan-29 20:28N 53°35' E 008°33'0 0.0
2018-Jan-29 19:58N 53°35' E 008°33'0 0.0
2018-Jan-29 19:28N 53°35' E 008°33'0 0.0
2018-Jan-29 18:58N 53°35' E 008°33'0 0.0
2018-Jan-29 18:28N 53°35' E 008°33'0 0.0
2018-Jan-29 17:58N 53°35' E 008°33'0 0.0
2018-Jan-29 17:28N 53°35' E 008°33'0 0.0
2018-Jan-29 16:58N 53°35' E 008°33'0 0.0
2018-Jan-29 16:28N 53°35' E 008°33'0 0.0
2018-Jan-29 15:58N 53°35' E 008°33'0 0.0
2018-Jan-29 15:28N 53°35' E 008°33'0 0.0
2018-Jan-29 14:58N 53°35' E 008°33'0 0.0
2018-Jan-29 14:28N 53°35' E 008°33'0 0.0
2018-Jan-29 13:58N 53°35' E 008°33'0 0.0
2018-Jan-29 13:28N 53°35' E 008°33'0 0.0
2018-Jan-29 12:58N 53°35' E 008°33'0 0.0
2018-Jan-29 12:28N 53°35' E 008°33'0 0.0
2018-Jan-29 11:58N 53°35' E 008°33'0 0.0
2018-Jan-29 11:28N 53°35' E 008°33'0 0.0
2018-Jan-29 10:58N 53°35' E 008°33'0 0.0
2018-Jan-29 10:28N 53°35' E 008°33'0 0.0
2018-Jan-29 09:58N 53°35' E 008°33'0 0.0
2018-Jan-29 09:25N 53°35' E 008°33'0 0.0
2018-Jan-29 08:58N 53°35' E 008°33'1 1.1
2018-Jan-29 08:30N 53°34' E 008°33'1 1.0
2018-Jan-29 07:59N 53°35' E 008°33'0 0.0
2018-Jan-29 07:29N 53°35' E 008°33'0 0.0
2018-Jan-29 06:59N 53°35' E 008°33'0 0.0
2018-Jan-29 06:26N 53°35' E 008°33'0 0.0
2018-Jan-29 05:59N 53°35' E 008°33'0 0.0
2018-Jan-29 05:29N 53°35' E 008°33'0 0.0
2018-Jan-29 04:59N 53°35' E 008°33'0 0.0
2018-Jan-29 04:29N 53°35' E 008°33'0 0.0
2018-Jan-29 03:59N 53°35' E 008°33'0 0.0
2018-Jan-29 03:29N 53°35' E 008°33'0 0.0
2018-Jan-29 02:59N 53°35' E 008°33'0 0.0
2018-Jan-29 02:29N 53°35' E 008°33'0 0.0
2018-Jan-29 01:59N 53°35' E 008°33'0 0.0
2018-Jan-29 01:29N 53°35' E 008°33'0 0.0
2018-Jan-29 00:59N 53°35' E 008°33'  
Track history (hours):
 
Tides and Currents Weather Stations Pressure Air Temp Water Temp Dewpoint Dewpoint Depression Visibility Wind Speed Wind Dir Waves Ship Positions

Guangzhou Highway

Last reported at 2018-Feb-08 00:45 UTC. Time now 2018-Feb-22 05:24 UTC.
Position N 06°59' W 014°43'.
Warning: this ship's position is 14 days out of date.

Length 180 m; beam 32.2 m.

Type: Ship. MMSI: 371697000.

Date/timePositionNaut miles runAvg speedWind from/ knotsBaromVisibWave heightAir tempDewpointWater temp
2018-Feb-08 00:45N 06°59' W 014°43'518.7
2018-Feb-08 00:30N 07°03' W 014°45'918.6
2018-Feb-08 00:00N 07°10' W 014°51'918.6
2018-Feb-07 23:30N 07°18' W 014°57'918.4
2018-Feb-07 23:00N 07°25' W 015°02'918.6
2018-Feb-07 22:31N 07°32' W 015°08'1318.6
2018-Feb-07 21:49N 07°43' W 015°16'518.4
2018-Feb-07 21:31N 07°47' W 015°19'  
2018-Feb-05 00:28N 27°36' W 015°15'818.1
2018-Feb-05 00:00N 27°43' W 015°11'917.8
2018-Feb-04 23:30N 27°52' W 015°07'917.5
2018-Feb-04 23:00N 27°60' W 015°03'917.4
2018-Feb-04 22:30N 28°08' W 015°00'917.5
2018-Feb-04 22:00N 28°16' W 014°57'917.5
2018-Feb-04 21:30N 28°24' W 014°53'917.4
2018-Feb-04 20:58N 28°33' W 014°50'  
2018-Feb-01 10:24N 49°42' W 003°50'816.1
2018-Feb-01 09:56N 49°44' W 003°38'715.6
2018-Feb-01 09:29N 49°43' W 003°28'3 3.2
2018-Feb-01 08:35N 49°43' W 003°23'0 3.3
2018-Feb-01 08:30N 49°43' W 003°24'7 3.8
2018-Feb-01 06:40N 49°42' W 003°35'1 4.3
2018-Feb-01 06:30N 49°42' W 003°36'3 1.6
2018-Feb-01 04:24N 49°46' W 003°37'612.7
2018-Feb-01 03:58N 49°48' W 003°29'1414.1
2018-Feb-01 03:01N 49°54' W 003°10'816.0
2018-Feb-01 02:30N 49°58' W 002°59'816.5
2018-Feb-01 02:01N 50°01' W 002°48'917.0
2018-Feb-01 01:30N 50°04' W 002°35'2017.0
2018-Feb-01 00:19N 50°10' W 002°05'515.9
2018-Feb-01 00:01N 50°12' W 001°58'1514.6
2018-Jan-31 23:00N 50°16' W 001°36'713.3
2018-Jan-31 22:30N 50°19' W 001°26'1711.5
2018-Jan-31 21:00N 50°25' W 001°01'510.2
2018-Jan-31 20:30N 50°28' W 000°56'714.7
2018-Jan-31 20:00N 50°36' W 000°58'611.1
2018-Jan-31 19:30N 50°41' W 000°58'510.8
2018-Jan-31 19:01N 50°44' W 001°05'815.1
2018-Jan-31 18:31N 50°46' W 001°16'5 9.2
2018-Jan-31 18:00N 50°50' W 001°19'4 7.4
2018-Jan-31 17:30N 50°53' W 001°24'0 0.0
2018-Jan-31 17:00N 50°53' W 001°24'0 0.0
2018-Jan-31 16:30N 50°53' W 001°24'0 0.0
2018-Jan-31 16:00N 50°53' W 001°24'0 0.0
2018-Jan-31 15:30N 50°53' W 001°24'0 0.0
2018-Jan-31 15:00N 50°53' W 001°24'0 0.0
2018-Jan-31 14:30N 50°53' W 001°24'0 0.0
2018-Jan-31 13:00N 50°53' W 001°24'0 0.0
2018-Jan-31 12:30N 50°53' W 001°24'0 0.0
2018-Jan-31 12:00N 50°53' W 001°24'0 0.0
2018-Jan-31 11:30N 50°53' W 001°24'0 0.0
2018-Jan-31 11:00N 50°53' W 001°24'0 0.0
2018-Jan-31 10:30N 50°53' W 001°24'0 0.0
2018-Jan-31 10:00N 50°53' W 001°24'0 0.0
2018-Jan-31 09:30N 50°53' W 001°24'0 0.0
2018-Jan-31 09:00N 50°53' W 001°24'0 0.0
2018-Jan-31 08:30N 50°53' W 001°24'0 0.0
2018-Jan-31 08:00N 50°53' W 001°24'0 0.0
2018-Jan-31 07:30N 50°53' W 001°24'0 0.0
2018-Jan-31 07:00N 50°53' W 001°24'0 0.0
2018-Jan-31 06:30N 50°53' W 001°24'2 4.3
2018-Jan-31 06:00N 50°52' W 001°21'5 9.1
2018-Jan-31 05:30N 50°47' W 001°19'612.5
2018-Jan-31 05:00N 50°46' W 001°09'714.7
2018-Jan-31 04:30N 50°43' W 000°59'5 9.2
2018-Jan-31 04:00N 50°38' W 000°58'4 7.3
2018-Jan-31 03:30N 50°37' W 000°53'2 4.3
2018-Jan-31 03:00N 50°37' W 000°49'3 6.9
2018-Jan-31 02:30N 50°35' W 000°44'816.1
2018-Jan-31 02:00N 50°31' W 000°33'917.1
2018-Jan-31 01:30N 50°32' W 000°20'816.7
2018-Jan-31 01:00N 50°32' W 000°07'1616.0
2018-Jan-31 00:00N 50°34' E 000°18'815.9
2018-Jan-30 23:30N 50°37' E 000°30'816.4
2018-Jan-30 23:00N 50°41' E 000°41'816.3
2018-Jan-30 22:30N 50°46' E 000°52'1514.8
2018-Jan-30 21:30N 50°55' E 001°10'714.0
2018-Jan-30 21:00N 50°60' E 001°18'815.5
2018-Jan-30 20:30N 51°05' E 001°27'917.4
2018-Jan-30 20:01N 51°10' E 001°38'918.0
2018-Jan-30 19:31N 51°17' E 001°48'918.0
2018-Jan-30 19:00N 51°24' E 001°57'917.7
2018-Jan-30 18:30N 51°31' E 002°06'917.2
2018-Jan-30 18:00N 51°37' E 002°15'917.5
2018-Jan-30 17:30N 51°43' E 002°25'1017.5
2018-Jan-30 16:56N 51°51' E 002°35'717.3
2018-Jan-30 16:31N 51°57' E 002°42'916.9
2018-Jan-30 15:58N 52°05' E 002°50'815.9
2018-Jan-30 15:29N 52°11' E 002°57'8015.7
2018-Jan-30 10:21N 53°11' E 004°25'12515.5
2018-Jan-30 02:18N 53°58' E 007°40'516.4
2018-Jan-30 02:00N 53°54' E 007°45'815.4
2018-Jan-30 01:30N 53°52' E 007°57'816.0
2018-Jan-30 01:00N 53°48' E 008°09'817.0
2018-Jan-30 00:31N 53°42' E 008°19'815.4
2018-Jan-30 00:00N 53°37' E 008°29'4 7.9
2018-Jan-29 23:30N 53°34' E 008°33'0 0.8
2018-Jan-29 23:00N 53°34' E 008°33'0 0.7
2018-Jan-29 22:28N 53°35' E 008°33'0 0.0
2018-Jan-29 21:58N 53°35' E 008°33'0 0.0
2018-Jan-29 21:28N 53°35' E 008°33'0 0.0
2018-Jan-29 20:58N 53°35' E 008°33'0 0.0
2018-Jan-29 20:28N 53°35' E 008°33'0 0.0
2018-Jan-29 19:58N 53°35' E 008°33'0 0.0
2018-Jan-29 19:28N 53°35' E 008°33'0 0.0
2018-Jan-29 18:58N 53°35' E 008°33'0 0.0
2018-Jan-29 18:28N 53°35' E 008°33'0 0.0
2018-Jan-29 17:58N 53°35' E 008°33'0 0.0
2018-Jan-29 17:28N 53°35' E 008°33'0 0.0
2018-Jan-29 16:58N 53°35' E 008°33'0 0.0
2018-Jan-29 16:28N 53°35' E 008°33'0 0.0
2018-Jan-29 15:58N 53°35' E 008°33'0 0.0
2018-Jan-29 15:28N 53°35' E 008°33'0 0.0
2018-Jan-29 14:58N 53°35' E 008°33'0 0.0
2018-Jan-29 14:28N 53°35' E 008°33'0 0.0
2018-Jan-29 13:58N 53°35' E 008°33'0 0.0
2018-Jan-29 13:28N 53°35' E 008°33'0 0.0
2018-Jan-29 12:58N 53°35' E 008°33'0 0.0
2018-Jan-29 12:28N 53°35' E 008°33'0 0.0
2018-Jan-29 11:58N 53°35' E 008°33'0 0.0
2018-Jan-29 11:28N 53°35' E 008°33'0 0.0
2018-Jan-29 10:58N 53°35' E 008°33'0 0.0
2018-Jan-29 10:28N 53°35' E 008°33'0 0.0
2018-Jan-29 09:58N 53°35' E 008°33'0 0.0
2018-Jan-29 09:25N 53°35' E 008°33'0 0.0
2018-Jan-29 08:58N 53°35' E 008°33'1 1.1
2018-Jan-29 08:30N 53°34' E 008°33'1 1.0
2018-Jan-29 07:59N 53°35' E 008°33'0 0.0
2018-Jan-29 07:29N 53°35' E 008°33'0 0.0
2018-Jan-29 06:59N 53°35' E 008°33'0 0.0
2018-Jan-29 06:26N 53°35' E 008°33'0 0.0
2018-Jan-29 05:59N 53°35' E 008°33'0 0.0
2018-Jan-29 05:29N 53°35' E 008°33'0 0.0
2018-Jan-29 04:59N 53°35' E 008°33'0 0.0
2018-Jan-29 04:29N 53°35' E 008°33'0 0.0
2018-Jan-29 03:59N 53°35' E 008°33'0 0.0
2018-Jan-29 03:29N 53°35' E 008°33'0 0.0
2018-Jan-29 02:59N 53°35' E 008°33'0 0.0
2018-Jan-29 02:29N 53°35' E 008°33'0 0.0
2018-Jan-29 01:59N 53°35' E 008°33'0 0.0
2018-Jan-29 01:29N 53°35' E 008°33'0 0.0
2018-Jan-29 00:59N 53°35' E 008°33'  

Dump ship's entire track history